Lyons, WI (53148)

12:10 PM CST on February 14, 2016 (GMT -0600)
Lyons | | Change Station
CLOSE
Current Station
Personal Weather Station
Location: Burlington, WI
Elevation: 814 ft
Nearby Weather Stations

Elev 814 ft 42.65 °N, 88.36 °W | Updated 6 seconds ago

Snow
Snow
16.7 °F
Feels Like 8 °F
N
6.0
Wind Variable Wind from SE
Gusts 7.4 mph

Today
High -- | Low -- °F
--% Chance of Precip.
Yesterday
High -- | Low -- °F
Precip. -- in
Pressure 30.21 in
Visibility 4.0 miles
Clouds Scattered Clouds 1200 ft
Scattered Clouds 1900 ft
Mostly Cloudy 2600 ft
Windchill 8 °F
Dew Point 1 °F
Humidity 50%
Rainfall 0.00 in
Snow Depth Not available.
6:52 AM 5:23 PM
Waxing Crescent, 44% visible
METAR KBUU 141755Z AUTO 13010KT 4SM -SN SCT012 SCT019 BKN026 M09/M14 A3021 RMK AO2 T10941145 11088 21185
Pressure 30.21 in
Visibility 4.0 miles
Clouds Scattered Clouds 1200 ft
Scattered Clouds 1900 ft
Mostly Cloudy 2600 ft
Windchill 8 °F
Dew Point 1 °F
Humidity 50%
Rainfall 0.00 in
Snow Depth Not available.
6:52 AM 5:23 PM
Waxing Crescent, 44% visible
METAR KBUU 141755Z AUTO 13010KT 4SM -SN SCT012 SCT019 BKN026 M09/M14 A3021 RMK AO2 T10941145 11088 21185

10-Day Weather Forecast

Almanac

Astronomy

Feb. 14, 2016 Rise Set
Actual Time
Civil Twilight
Nautical Twilight
Astronomical Twilight
Moon
Length of Visible Light
Length of Day
Tomorrow will be .
, % of the Moon is Illuminated

Today's Extremes

State Highs State Lows

Community

WunderPhotos

Upload Photos

1,892,866 photos uploaded!

WunderBlog® & News

Nearby

Air Quality

  Air Quality AQ Index Pollutant
Not available.

Snow Depth

Station Depth Elevation

Earthquake Activity

City Distance Mag. Time & Date
Minimum magnitude displayed is 2.5.

Coastal Water Temperatures

Place Temperature

Stations

Nearby Weather Stations

Station Location Temp. Windchill Dew Point Humidity Wind Precip. Elev Updated Type
                   

Watches & Warnings

There are currently no watches in effect.